Time;durP1;ratioP1;P1;durP2;ratioP2;P2;SDS_P1;SDS_P2;PMS_P1;PMS_P2;Temp;Humidity;BMP_temperature;BMP_pressure;BME280_temperature;BME280_humidity;BME280_pressure;Samples;Min_cycle;Max_cycle;Signal;HPM_P1;HPM_P2
2024/01/10 00:02:49;;;;;;;22.30;11.93;;;;;;;-6.48;77.76;99149.31;10327510;28;20069;-47
2024/01/10 00:07:48;;;;;;;;;;;;;;;-6.50;77.90;99150.84;10328349;28;20079;-48
2024/01/10 00:12:47;;;;;;;36.23;16.90;;;;;;;-6.59;77.62;99134.91;10326925;28;19913;-48
2024/01/10 00:17:46;;;;;;;31.92;14.52;;;;;;;-7.05;76.74;99060.22;10325526;28;20136;-48
2024/01/10 00:22:45;;;;;;;;;;;;;;;-6.31;76.73;99155.88;10325958;28;20049;-49
2024/01/10 00:27:44;;;;;;;21.93;9.87;;;;;;;-6.21;77.37;99149.97;10329108;28;19940;-49
2024/01/10 00:32:43;;;;;;;;;;;;;;;-6.06;77.57;99143.69;10327554;28;20192;-49
2024/01/10 00:37:41;;;;;;;13.35;7.07;;;;;;;-6.08;77.85;99142.72;10326596;28;19944;-48
2024/01/10 00:42:40;;;;;;;;;;;;;;;-6.05;76.33;99142.97;10326986;28;20041;-48
2024/01/10 00:47:39;;;;;;;11.07;6.03;;;;;;;-6.45;75.78;99103.28;10323983;28;20464;-48
2024/01/10 00:52:38;;;;;;;;;;;;;;;-7.20;76.31;98958.88;10324692;28;20045;-48
2024/01/10 00:57:40;;;;;;;18.40;8.13;;;;;;;-6.14;76.78;99130.41;10323961;28;19924;-48
2024/01/10 01:02:41;;;;;;;15.20;8.15;;;;;;;-6.11;76.09;99137.38;10323666;28;20057;-48
2024/01/10 01:07:40;;;;;;;12.02;7.18;;;;;;;-6.33;76.87;99090.06;10324515;28;20160;-49
2024/01/10 01:12:39;;;;;;;;;;;;;;;-5.89;76.68;99151.09;10322387;28;20077;-49
2024/01/10 01:17:38;;;;;;;14.97;8.17;;;;;;;-6.12;78.26;99095.19;10324413;28;19925;-51
2024/01/10 01:22:37;;;;;;;;;;;;;;;-5.79;77.53;99144.31;10323131;28;20594;-49
2024/01/10 01:27:36;;;;;;;13.95;6.50;;;;;;;-5.96;76.48;99148.81;10323456;28;20334;-48
2024/01/10 01:32:35;;;;;;;;;;;;;;;-6.10;76.00;99129.94;10324083;28;20467;-48
2024/01/10 01:37:33;;;;;;;14.47;7.43;;;;;;;-7.26;76.89;98939.03;10321851;28;19925;-48
2024/01/10 01:42:32;;;;;;;;;;;;;;;-6.12;76.11;99126.38;10323077;28;20468;-48
2024/01/10 01:47:32;;;;;;;11.83;7.17;;;;;;;-7.33;77.48;98941.75;10321673;28;19941;-48
2024/01/10 01:52:31;;;;;;;13.32;7.03;;;;;;;-6.47;77.43;99104.78;10320893;28;20145;-48
2024/01/10 01:57:30;;;;;;;9.95;6.60;;;;;;;-6.41;77.28;99086.00;10320726;28;20148;-49
2024/01/10 02:02:31;;;;;;;10.75;6.43;;;;;;;-6.26;77.63;99105.75;10321563;28;20155;-48
2024/01/10 02:07:30;;;;;;;8.30;4.97;;;;;;;-6.59;76.94;99059.16;10321031;28;20079;-48
2024/01/10 02:12:29;;;;;;;;;;;;;;;-6.31;76.39;99112.94;10321627;28;20033;-48
2024/01/10 02:17:28;;;;;;;13.67;7.23;;;;;;;-6.40;76.67;99086.88;10321206;28;19983;-48
2024/01/10 02:22:27;;;;;;;;;;;;;;;-6.39;76.01;99109.72;10321173;28;20132;-48
2024/01/10 02:27:26;;;;;;;8.23;5.30;;;;;;;-6.68;76.69;99093.69;10320509;28;19948;-48
2024/01/10 02:32:25;;;;;;;13.18;7.40;;;;;;;-7.32;75.74;98976.31;10320361;28;20511;-49
2024/01/10 02:37:25;;;;;;;12.85;6.43;;;;;;;-7.20;76.54;99010.19;10321438;28;20099;-49
2024/01/10 02:42:23;;;;;;;16.58;7.43;;;;;;;-6.95;76.29;99053.59;10319688;28;20087;-48
2024/01/10 02:47:22;;;;;;;;;;;;;;;-6.67;76.89;99105.56;10318162;28;20029;-48
2024/01/10 02:52:21;;;;;;;13.47;6.97;;;;;;;-7.23;77.08;99027.59;10319565;28;19940;-49
2024/01/10 02:57:20;;;;;;;14.32;7.25;;;;;;;-6.69;77.90;99099.47;10319504;28;20029;-48
2024/01/10 03:02:19;;;;;;;13.93;6.38;;;;;;;-6.71;77.34;99109.47;10319860;28;20029;-48
2024/01/10 03:07:18;;;;;;;19.10;7.90;;;;;;;-6.68;77.87;99098.75;10319522;28;20035;-48
2024/01/10 03:12:17;;;;;;;;;;;;;;;-6.61;77.30;99096.88;10319514;28;20148;-48
2024/01/10 03:17:15;;;;;;;11.30;6.63;;;;;;;-8.17;77.75;98836.06;10319350;28;19952;-49
2024/01/10 03:22:14;;;;;;;11.00;6.28;;;;;;;-6.81;76.66;99095.13;10318662;28;20049;-48
2024/01/10 03:27:13;;;;;;;21.20;8.18;;;;;;;-6.97;76.98;99066.81;10319395;28;20481;-49
2024/01/10 03:32:13;;;;;;;16.50;9.25;;;;;;;-6.87;76.79;99092.09;10319859;28;20140;-48
2024/01/10 03:37:12;;;;;;;19.60;8.80;;;;;;;-7.05;76.54;99065.25;10326201;28;20061;-48
2024/01/10 03:42:11;;;;;;;21.27;9.57;;;;;;;-7.29;76.01;99042.16;10327048;28;20112;-50
2024/01/10 03:47:10;;;;;;;23.48;11.75;;;;;;;-7.06;76.78;99073.59;10327367;28;20112;-48
2024/01/10 03:52:09;;;;;;;15.52;8.30;;;;;;;-7.02;75.67;99068.03;10326487;28;20029;-49
2024/01/10 03:57:07;;;;;;;16.55;7.70;;;;;;;-7.25;76.22;99076.09;10326198;28;20033;-49
2024/01/10 04:02:06;;;;;;;14.45;7.25;;;;;;;-7.16;76.83;99082.88;10326264;28;20033;-48
2024/01/10 04:07:06;;;;;;;16.00;8.00;;;;;;;-7.29;77.01;99054.75;10325927;28;20506;-48
2024/01/10 04:12:05;;;;;;;13.55;8.05;;;;;;;-6.96;77.40;99096.34;10325992;28;20124;-50
2024/01/10 04:17:04;;;;;;;26.83;12.57;;;;;;;-7.09;77.99;99075.81;10326312;28;20128;-48
2024/01/10 04:22:03;;;;;;;20.40;11.68;;;;;;;-7.28;78.56;99088.44;10325162;28;20083;-49
2024/01/10 04:27:03;;;;;;;26.05;11.27;;;;;;;-7.33;78.15;99080.44;10325711;28;20049;-48
2024/01/10 04:32:02;;;;;;;23.63;12.40;;;;;;;-7.20;78.57;99106.03;10324954;28;20732;-49
2024/01/10 04:37:01;;;;;;;23.85;11.48;;;;;;;-7.22;79.28;99110.03;10324786;28;20053;-48
2024/01/10 04:42:00;;;;;;;23.02;11.40;;;;;;;-7.19;78.87;99107.78;10322642;28;20061;-48
2024/01/10 04:46:59;;;;;;;23.13;12.30;;;;;;;-7.25;78.80;99109.78;10323843;28;20067;-48
2024/01/10 04:51:58;;;;;;;24.63;12.13;;;;;;;-7.80;78.59;99027.53;10322146;28;20053;-48
2024/01/10 04:56:57;;;;;;;18.10;10.15;;;;;;;-7.70;78.65;99039.31;10323619;28;20073;-48
2024/01/10 05:01:56;;;;;;;17.55;9.40;;;;;;;-7.39;78.89;99102.63;10323355;28;20045;-48
2024/01/10 05:06:55;;;;;;;23.75;14.15;;;;;;;-7.44;78.76;99083.63;10322774;28;20069;-48
2024/01/10 05:11:54;;;;;;;33.50;17.15;;;;;;;-7.46;78.46;99105.28;10321272;28;20044;-48
2024/01/10 05:16:53;;;;;;;28.58;15.45;;;;;;;-8.01;77.96;99071.78;10322787;28;20136;-48
2024/01/10 05:21:54;;;;;;;26.48;14.18;;;;;;;-8.19;79.56;99125.50;10321553;28;20049;-48
2024/01/10 05:26:53;;;;;;;32.22;17.33;;;;;;;-8.57;79.54;99072.44;10321818;28;20065;-48
2024/01/10 05:31:52;;;;;;;39.45;20.27;;;;;;;-8.38;79.22;99132.94;10320208;28;20073;-49
2024/01/10 05:36:51;;;;;;;34.08;17.20;;;;;;;-8.38;79.81;99152.22;10315968;28;20120;-49
2024/01/10 05:41:50;;;;;;;25.33;14.93;;;;;;;-8.44;78.78;99147.50;10320323;28;20029;-47
2024/01/10 05:46:49;;;;;;;24.83;12.88;;;;;;;-8.68;79.51;99151.03;10322002;28;20076;-50
2024/01/10 05:51:48;;;;;;;23.23;12.00;;;;;;;-8.72;79.42;99159.06;10318559;28;20045;-49
2024/01/10 05:56:48;;;;;;;26.58;15.43;;;;;;;-9.15;80.12;99104.59;10318295;28;20154;-48
2024/01/10 06:01:47;;;;;;;31.50;16.27;;;;;;;-8.84;79.20;99136.13;10319714;28;20060;-48
2024/01/10 06:06:46;;;;;;;42.50;22.05;;;;;;;-8.94;80.51;99110.81;10320530;28;20046;-49
2024/01/10 06:11:45;;;;;;;48.13;22.35;;;;;;;-8.67;80.24;99162.91;10320008;28;20065;-48
2024/01/10 06:16:44;;;;;;;43.28;22.48;;;;;;;-8.81;80.35;99122.97;10319098;28;20032;-49
2024/01/10 06:21:44;;;;;;;45.42;23.95;;;;;;;-8.65;78.47;99147.22;10319757;28;20145;-51
2024/01/10 06:26:43;;;;;;;52.85;27.73;;;;;;;-8.58;79.82;99168.81;10318591;28;20061;-48
2024/01/10 06:31:42;;;;;;;50.63;24.65;;;;;;;-8.72;79.34;99179.19;10318851;28;20029;-50
2024/01/10 06:36:41;;;;;;;60.95;28.70;;;;;;;-8.75;78.68;99133.59;10317188;28;20132;-50
2024/01/10 06:41:40;;;;;;;51.33;24.25;;;;;;;-8.50;78.34;99157.84;10312710;28;20136;-48
2024/01/10 06:46:39;;;;;;;46.20;22.02;;;;;;;-8.38;79.20;99177.38;10316764;28;20025;-47
2024/01/10 06:51:38;;;;;;;34.40;18.02;;;;;;;-8.46;78.36;99147.34;10317624;28;20106;-48
2024/01/10 06:56:37;;;;;;;35.30;17.90;;;;;;;-8.18;79.36;99172.59;10316047;28;20172;-49
2024/01/10 07:01:36;;;;;;;53.67;28.92;;;;;;;-8.29;78.13;99153.97;10318070;28;20053;-49
2024/01/10 07:06:35;;;;;;;40.65;20.25;;;;;;;-8.48;77.06;99163.03;10317486;28;20064;-48
2024/01/10 07:11:34;;;;;;;46.30;22.00;;;;;;;-9.07;76.39;99091.16;10314864;28;20047;-49
2024/01/10 07:16:33;;;;;;;39.65;20.50;;;;;;;-8.40;76.74;99183.91;10316940;28;20034;-49
2024/01/10 07:21:32;;;;;;;53.70;28.70;;;;;;;-8.20;78.08;99194.25;10316900;28;20048;-48
2024/01/10 07:26:31;;;;;;;54.88;30.35;;;;;;;-8.06;77.62;99183.84;10317089;28;20079;-48
2024/01/10 07:31:30;;;;;;;61.75;34.40;;;;;;;-7.80;77.68;99198.88;10317757;28;20041;-48
2024/01/10 07:36:29;;;;;;;39.50;22.92;;;;;;;-7.90;78.08;99163.50;10317042;28;20131;-51
2024/01/10 07:41:28;;;;;;;43.53;23.70;;;;;;;-7.68;78.35;99183.13;10317938;28;20076;-48
2024/01/10 07:46:27;;;;;;;45.25;26.33;;;;;;;-9.32;77.94;98854.13;10316658;28;20040;-49
2024/01/10 07:51:26;;;;;;;51.25;25.77;;;;;;;-7.23;77.30;99178.91;10318370;28;20107;-51
2024/01/10 07:56:25;;;;;;;38.45;24.92;;;;;;;-8.45;76.96;98955.28;10315826;28;20059;-48
2024/01/10 08:01:24;;;;;;;44.70;24.60;;;;;;;-7.21;77.22;99143.72;10317256;28;20151;-50
2024/01/10 08:06:24;;;;;;;48.10;25.55;;;;;;;-6.84;76.92;99183.19;10315958;28;20069;-48
2024/01/10 08:11:24;;;;;;;45.42;24.42;;;;;;;-7.16;75.88;99103.03;10315576;28;20129;-48
2024/01/10 08:16:23;;;;;;;49.20;26.10;;;;;;;-6.79;75.74;99171.00;10315994;28;20449;-48
2024/01/10 08:21:22;;;;;;;40.03;22.33;;;;;;;-6.91;74.47;99168.25;10319368;28;20128;-48
2024/01/10 08:26:21;;;;;;;44.88;23.17;;;;;;;-6.79;74.69;99192.06;10323253;28;20032;-48
2024/01/10 08:31:20;;;;;;;49.30;25.67;;;;;;;-6.93;75.70;99152.09;10323518;28;20026;-48
2024/01/10 08:36:19;;;;;;;52.53;28.52;;;;;;;-6.79;74.80;99156.72;10320836;28;20114;-49
2024/01/10 08:41:19;;;;;;;;;;;;;;;-6.59;74.74;99196.38;10315286;28;20038;-49
2024/01/10 08:46:18;;;;;;;50.10;27.60;;;;;;;-7.08;75.41;99095.25;10320277;28;20020;-48
2024/01/10 08:51:17;;;;;;;;;;;;;;;-6.20;75.56;99185.47;10319183;28;20122;-48
2024/01/10 08:56:16;;;;;;;51.67;28.77;;;;;;;-6.08;75.01;99178.09;10321530;28;19916;-48
2024/01/10 09:01:15;;;;;;;62.10;33.80;;;;;;;-5.77;76.56;99160.50;10321529;28;20141;-48
2024/01/10 09:06:14;;;;;;;;;;;;;;;-5.60;72.90;99162.78;10321306;28;20038;-48
2024/01/10 09:11:13;;;;;;;38.77;22.83;;;;;;;-5.95;73.99;99119.34;10321136;28;19920;-48
2024/01/10 09:16:12;;;;;;;;;;;;;;;-5.67;72.60;99160.50;10320500;28;20034;-48
2024/01/10 09:21:12;;;;;;;39.70;20.83;;;;;;;-5.48;73.54;99155.34;10319542;28;19982;-48
2024/01/10 09:26:10;;;;;;;38.88;22.33;;;;;;;-5.92;73.41;99117.09;10302522;28;20149;-48
2024/01/10 09:31:09;;;;;;;;;;;;;;;-5.60;73.07;99134.09;10303213;28;20041;-49
2024/01/10 09:36:08;;;;;;;46.42;23.67;;;;;;;-5.55;73.45;99118.53;10301234;28;19921;-47
2024/01/10 09:41:07;;;;;;;;;;;;;;;-5.43;71.73;99151.56;10253256;28;20144;-48
2024/01/10 09:46:07;;;;;;;44.13;24.10;;;;;;;-5.18;71.10;99146.03;10303109;28;20047;-48
2024/01/10 09:51:06;;;;;;;43.97;24.50;;;;;;;-5.12;71.92;99126.25;10303884;28;20483;-48
2024/01/10 09:56:08;;;;;;;35.15;21.90;;;;;;;-4.91;71.37;99125.50;10301826;28;20156;-50
2024/01/10 10:01:07;;;;;;;33.58;20.38;;;;;;;-4.82;72.60;99103.47;10302575;28;20162;-48
2024/01/10 10:06:07;;;;;;;;;;;;;;;-4.54;71.85;99105.66;10302699;28;20164;-47
2024/01/10 10:11:06;;;;;;;30.15;19.13;;;;;;;-4.67;70.31;99059.88;10304008;28;20016;-47
2024/01/10 10:16:05;;;;;;;;;;;;;;;-4.52;70.28;99094.00;10302093;28;20041;-47
2024/01/10 10:21:09;;;;;;;22.38;13.82;;;;;;;-4.28;71.77;99092.53;10303114;28;21053;-48
2024/01/10 10:26:20;;;;;;;30.50;17.13;;;;;;;-4.66;68.48;99004.25;10301108;28;20219;-50
2024/01/10 10:31:19;;;;;;;28.63;15.15;;;;;;;-4.55;68.35;99000.03;10301527;28;20128;-47
2024/01/10 10:36:20;;;;;;;28.35;18.00;;;;;;;-3.88;69.41;99067.72;10299077;28;20128;-47
2024/01/10 10:41:19;;;;;;;25.75;16.33;;;;;;;-4.16;68.04;99049.53;10311671;28;20136;-48
2024/01/10 10:46:22;;;;;;;25.95;15.82;;;;;;;-3.88;67.30;99057.59;10308364;28;20138;-47
2024/01/10 10:51:33;;;;;;;26.38;15.20;;;;;;;-3.80;70.24;99045.47;10300762;28;20876;-50
2024/01/10 10:56:34;;;;;;;24.40;15.63;;;;;;;-3.42;68.68;99048.34;10299827;28;20037;-48
2024/01/10 11:01:34;;;;;;;26.92;15.60;;;;;;;-3.65;66.99;99036.47;10298570;28;20032;-47
2024/01/10 11:06:34;;;;;;;56.45;26.13;;;;;;;-3.62;66.32;99030.78;10300162;28;20129;-49
2024/01/10 11:11:54;;;;;;;27.35;16.25;;;;;;;-3.44;67.92;99024.50;10300019;28;20038;-49
2024/01/10 11:17:05;;;;;;;28.25;16.85;;;;;;;-3.26;69.04;99011.41;10298099;28;20102;-48
2024/01/10 11:22:42;;;;;;;30.33;18.23;;;;;;;-3.01;68.68;98996.31;10296858;28;20133;-47
2024/01/10 11:27:42;;;;;;;33.50;19.77;;;;;;;-3.41;67.22;98896.97;10300523;28;20164;-47
2024/01/10 11:32:43;;;;;;;24.67;15.00;;;;;;;-3.16;65.77;98988.47;10301791;28;21055;-47
2024/01/10 11:37:44;;;;;;;25.25;14.73;;;;;;;-3.51;65.54;98960.50;10299787;28;20053;-49
2024/01/10 11:42:45;;;;;;;26.50;16.52;;;;;;;-3.60;66.56;98935.34;10300276;28;20159;-47
2024/01/10 11:47:44;;;;;;;23.95;15.68;;;;;;;-3.29;66.73;98980.75;10301722;28;20133;-48
2024/01/10 11:52:43;;;;;;;;;;;;;;;-3.30;66.61;98974.75;10303082;28;20116;-47
2024/01/10 11:57:42;;;;;;;20.55;13.75;;;;;;;-3.21;65.44;98959.31;10315877;28;19920;-48
2024/01/10 12:02:41;;;;;;;20.83;14.32;;;;;;;-3.06;66.57;98919.81;10321168;28;20031;-48
2024/01/10 12:07:40;;;;;;;22.30;14.38;;;;;;;-2.76;63.62;98963.38;10313504;28;20780;-48
2024/01/10 12:12:39;;;;;;;18.77;11.93;;;;;;;-2.67;64.80;98946.22;10306903;28;20502;-49
2024/01/10 12:17:38;;;;;;;22.50;12.35;;;;;;;-2.47;65.24;98954.38;10308826;28;20116;-50
2024/01/10 12:22:37;;;;;;;31.55;14.70;;;;;;;-2.27;66.89;98948.97;10312609;28;20049;-48
2024/01/10 12:27:36;;;;;;;61.78;20.90;;;;;;;-2.08;65.10;98946.03;10319385;28;20116;-50
2024/01/10 12:32:35;;;;;;;23.73;12.18;;;;;;;-2.23;63.31;98945.00;10306968;28;20045;-49
2024/01/10 12:37:34;;;;;;;20.20;12.55;;;;;;;-2.70;60.50;98887.59;10308317;28;20878;-48
2024/01/10 12:42:33;;;;;;;20.33;13.75;;;;;;;-2.19;64.62;98950.41;10320977;28;20030;-48
2024/01/10 12:47:34;;;;;;;31.77;15.43;;;;;;;-2.05;65.52;98946.25;10319380;28;20897;-51
2024/01/10 12:52:39;;;;;;;28.85;15.27;;;;;;;-2.18;63.28;98903.84;10318763;28;20479;-48
2024/01/10 12:57:38;;;;;;;24.98;14.95;;;;;;;-2.01;64.14;98914.25;10319996;28;20144;-49
2024/01/10 13:02:37;;;;;;;20.60;11.30;;;;;;;-1.96;62.26;98915.44;10318593;28;20112;-48
2024/01/10 13:07:36;;;;;;;11.93;7.93;;;;;;;-1.69;63.45;98946.94;10315754;28;20124;-49
2024/01/10 13:12:35;;;;;;;7.53;6.03;;;;;;;-1.90;56.21;98928.59;10321241;28;20072;-48
2024/01/10 13:17:34;;;;;;;7.38;6.13;;;;;;;-2.16;53.77;98919.22;10321620;28;20029;-48
2024/01/10 13:22:33;;;;;;;18.10;12.05;;;;;;;-2.00;56.90;98944.03;10320024;28;20565;-49
2024/01/10 13:27:32;;;;;;;43.03;30.42;;;;;;;-2.45;57.10;98846.06;10318162;28;20600;-49
2024/01/10 13:32:31;;;;;;;24.48;14.90;;;;;;;-1.67;58.71;98937.75;10313885;28;20028;-48
2024/01/10 13:37:32;;;;;;;11.65;7.72;;;;;;;-2.01;55.24;98925.31;10308061;28;20886;-47
2024/01/10 13:42:32;;;;;;;7.88;5.88;;;;;;;-1.86;55.52;98938.19;10299792;28;20462;-48
2024/01/10 13:47:35;;;;;;;9.70;6.10;;;;;;;-2.14;60.91;98876.97;10304370;28;20136;-48
2024/01/10 13:52:34;;;;;;;13.00;7.93;;;;;;;-1.68;56.01;98941.97;10315379;28;20164;-48
2024/01/10 13:57:33;;;;;;;15.38;9.13;;;;;;;-1.69;59.28;98957.13;10317878;28;20112;-48
2024/01/10 14:02:35;;;;;;;19.63;11.40;;;;;;;-1.75;59.37;98951.59;10314759;28;20120;-48
2024/01/10 14:07:35;;;;;;;18.10;10.80;;;;;;;-1.69;62.26;98959.66;10306256;28;20125;-48
2024/01/10 14:12:34;;;;;;;15.23;10.18;;;;;;;-1.71;62.07;98956.13;10302698;28;20136;-48
2024/01/10 14:17:32;;;;;;;15.40;10.20;;;;;;;-1.82;63.43;98947.81;10309606;28;20037;-48
2024/01/10 14:22:31;;;;;;;17.13;12.02;;;;;;;-1.97;61.73;98940.00;10340683;28;20124;-47
2024/01/10 14:27:30;;;;;;;20.55;12.60;;;;;;;-1.89;63.52;98959.22;10354448;28;20689;-47
2024/01/10 14:32:29;;;;;;;26.88;17.30;;;;;;;-2.01;64.57;98954.97;10341797;28;20136;-48
2024/01/10 14:37:28;;;;;;;45.53;27.70;;;;;;;-2.11;63.27;98961.09;10340558;28;20148;-47
2024/01/10 14:42:27;;;;;;;39.83;24.38;;;;;;;-2.25;65.99;98967.78;10341889;28;20036;-47
2024/01/10 14:47:26;;;;;;;26.50;17.77;;;;;;;-2.34;65.93;98955.31;10344811;28;20027;-48
2024/01/10 14:52:25;;;;;;;42.13;19.58;;;;;;;-2.65;66.18;98929.44;10356903;28;20056;-48
2024/01/10 14:57:24;;;;;;;28.65;19.02;;;;;;;-2.95;67.06;98898.56;10356846;28;20606;-48
2024/01/10 15:02:23;;;;;;;30.33;20.95;;;;;;;-2.75;67.43;98958.41;10356602;28;20617;-48
2024/01/10 15:07:22;;;;;;;33.15;21.13;;;;;;;-2.88;67.85;98959.97;10345391;28;20625;-48
2024/01/10 15:12:21;;;;;;;36.10;22.25;;;;;;;-3.28;68.95;98932.63;10355626;28;20064;-47
2024/01/10 15:17:20;;;;;;;34.38;22.65;;;;;;;-3.18;68.77;98964.63;10343273;28;20033;-48
2024/01/10 15:22:19;;;;;;;28.10;19.58;;;;;;;-3.54;69.81;98933.25;10360029;28;20367;-49
2024/01/10 15:27:18;;;;;;;24.15;16.00;;;;;;;-3.82;70.22;98895.72;10360564;28;20119;-48
2024/01/10 15:32:17;;;;;;;28.48;19.33;;;;;;;-3.60;70.30;98968.31;10364346;28;20032;-48
2024/01/10 15:37:16;;;;;;;27.15;17.67;;;;;;;-4.15;70.78;98904.25;10367635;28;20052;-48
2024/01/10 15:42:15;;;;;;;29.77;18.83;;;;;;;-4.09;70.83;98931.72;10368235;28;20032;-47
2024/01/10 15:47:14;;;;;;;31.98;20.80;;;;;;;-4.46;71.32;98880.81;10368666;28;21021;-49
2024/01/10 15:52:13;;;;;;;26.05;18.05;;;;;;;-4.06;72.16;98972.53;10367521;28;20798;-48
2024/01/10 15:57:12;;;;;;;36.85;22.48;;;;;;;-4.17;72.80;98961.56;10367501;28;20402;-50
2024/01/10 16:02:11;;;;;;;39.70;23.90;;;;;;;-4.31;72.18;98962.16;10368062;28;20128;-48
2024/01/10 16:07:10;;;;;;;34.38;19.88;;;;;;;-4.75;72.83;98904.78;10364849;28;20123;-49
2024/01/10 16:12:12;;;;;;;;;;;;;;;-4.45;73.20;98969.56;10367549;28;20104;-48
2024/01/10 16:17:11;;;;;;;30.58;21.05;;;;;;;-4.47;74.30;98965.16;10366366;28;19959;-48
2024/01/10 16:22:10;;;;;;;47.92;28.17;;;;;;;-5.03;73.75;98874.81;10366584;28;20140;-50
2024/01/10 16:27:08;;;;;;;;;;;;;;;-4.56;74.00;98965.31;10363633;28;20035;-47
2024/01/10 16:32:07;;;;;;;31.85;19.65;;;;;;;-4.96;74.74;98903.13;10363466;28;19940;-47
2024/01/10 16:37:07;;;;;;;35.25;19.88;;;;;;;-4.70;74.10;98954.16;10362848;28;20090;-50
2024/01/10 16:42:08;;;;;;;39.90;22.02;;;;;;;-4.92;75.53;98938.03;10362414;28;20108;-49
2024/01/10 16:47:08;;;;;;;39.65;22.52;;;;;;;-4.82;75.30;98950.66;10356380;28;20102;-48
2024/01/10 16:52:07;;;;;;;31.80;18.55;;;;;;;-4.79;74.66;98970.25;10362121;28;20190;-48
2024/01/10 16:57:06;;;;;;;;;;;;;;;-4.87;74.50;98973.06;10362866;28;20025;-48
2024/01/10 17:02:05;;;;;;;28.13;16.55;;;;;;;-5.05;74.71;98942.16;10358034;28;20020;-47
2024/01/10 17:07:04;;;;;;;;;;;;;;;-5.00;74.63;98969.44;10362871;28;20115;-48
2024/01/10 17:12:03;;;;;;;34.20;19.23;;;;;;;-5.12;75.26;98967.75;10362045;28;19912;-47
2024/01/10 17:17:02;;;;;;;57.55;26.65;;;;;;;-5.20;75.86;98938.41;10360124;28;20060;-47
2024/01/10 17:22:01;;;;;;;67.18;37.22;;;;;;;-5.36;76.18;98936.28;10323832;28;1115991;-49
2024/01/10 17:26:59;;;;;;;;;;;;;;;-5.15;76.72;98967.47;10362733;28;20025;-47
2024/01/10 17:31:59;;;;;;;72.38;37.40;;;;;;;-5.13;76.49;98971.00;10362050;28;20420;-47
2024/01/10 17:36:58;;;;;;;94.20;48.92;;;;;;;-5.17;77.13;98974.06;10361736;28;20056;-48
2024/01/10 17:41:56;;;;;;;;;;;;;;;-5.22;77.46;98989.66;10363843;28;20033;-49
2024/01/10 17:46:55;;;;;;;65.72;37.15;;;;;;;-5.26;77.86;98993.59;10361742;28;20021;-48
2024/01/10 17:51:54;;;;;;;;;;;;;;;-5.23;77.79;98993.81;10360614;28;20021;-50
2024/01/10 17:56:53;;;;;;;75.15;36.97;;;;;;;-5.36;77.11;98986.88;10362147;28;19913;-49
2024/01/10 18:01:52;;;;;;;;;;;;;;;-5.36;77.83;98984.34;10361686;28;20028;-48
2024/01/10 18:06:51;;;;;;;63.20;37.53;;;;;;;-5.51;77.90;98971.34;10358306;28;19916;-49
2024/01/10 18:11:51;;;;;;;;;;;;;;;-5.41;77.21;98979.69;10363515;28;20060;-47
2024/01/10 18:16:49;;;;;;;49.33;30.52;;;;;;;-5.40;77.58;98966.28;10359972;28;20019;-49
2024/01/10 18:21:48;;;;;;;;;;;;;;;-5.47;77.86;98965.78;10360474;28;20144;-48
2024/01/10 18:26:47;;;;;;;53.33;32.83;;;;;;;-5.51;77.70;98973.88;10358690;28;20042;-48
2024/01/10 18:31:46;;;;;;;;;;;;;;;-5.51;77.83;98962.91;10358982;28;20044;-49
2024/01/10 18:36:45;;;;;;;51.17;29.80;;;;;;;-6.17;77.93;98846.34;10360583;28;19939;-48
2024/01/10 18:41:44;;;;;;;;;;;;;;;-5.60;77.93;98957.09;10362334;28;20135;-47
2024/01/10 18:46:43;;;;;;;134.43;70.60;;;;;;;-5.60;78.90;98962.16;10357677;28;19916;-49
2024/01/10 18:51:42;;;;;;;;;;;;;;;-5.60;78.83;98963.03;10360364;28;20029;-48
2024/01/10 18:56:40;;;;;;;152.47;89.60;;;;;;;-5.79;78.82;98942.94;10360098;28;20031;-49
2024/01/10 19:01:39;;;;;;;;;;;;;;;-5.64;79.02;98965.19;10359723;28;20033;-48
2024/01/10 19:06:38;;;;;;;145.37;78.07;;;;;;;-5.83;79.14;98940.91;10360255;28;19982;-49
2024/01/10 19:11:37;;;;;;;;;;;;;;;-5.83;78.76;98958.63;10358637;28;20064;-48
2024/01/10 19:16:38;;;;;;;111.17;61.23;;;;;;;-6.15;79.83;98940.78;10356811;28;20420;-48
2024/01/10 19:21:37;;;;;;;94.07;50.05;;;;;;;-7.04;79.44;98812.22;10358216;28;20079;-48
2024/01/10 19:26:36;;;;;;;60.10;34.95;;;;;;;-6.02;79.52;98970.50;10356701;28;20479;-48
2024/01/10 19:31:35;;;;;;;;;;;;;;;-6.08;80.36;98973.41;10358912;28;20064;-48
2024/01/10 19:36:34;;;;;;;67.27;34.57;;;;;;;-6.07;79.80;98957.47;10356308;28;20009;-49
2024/01/10 19:41:33;;;;;;;54.92;31.33;;;;;;;-5.99;79.56;98950.53;10358771;28;20116;-49
2024/01/10 19:46:32;;;;;;;48.42;27.38;;;;;;;-6.13;79.34;98947.78;10359209;28;20474;-47
2024/01/10 19:51:31;;;;;;;;;;;;;;;-6.25;79.14;98951.78;10356562;28;20405;-48
2024/01/10 19:56:31;;;;;;;53.30;31.60;;;;;;;-6.32;79.69;98952.91;10351685;28;19944;-48
2024/01/10 20:01:30;;;;;;;81.50;45.30;;;;;;;-6.25;79.77;98950.91;10355845;28;20087;-47
2024/01/10 20:06:29;;;;;;;;;;;;;;;-6.25;79.80;98944.19;10360913;28;20123;-48
2024/01/10 20:11:28;;;;;;;161.73;90.83;;;;;;;-6.37;80.19;98935.59;10356926;28;19916;-48
2024/01/10 20:16:27;;;;;;;;;;;;;;;-6.32;79.78;98944.44;10357600;28;20749;-49
2024/01/10 20:21:27;;;;;;;88.40;45.87;;;;;;;-6.42;80.28;98937.75;10365047;28;20313;-48
2024/01/10 20:26:26;;;;;;;91.45;50.00;;;;;;;-6.59;80.25;98905.16;10362986;28;20071;-49
2024/01/10 20:31:25;;;;;;;95.10;49.13;;;;;;;-6.59;80.05;98903.50;10362491;28;20136;-53
2024/01/10 20:36:24;;;;;;;82.97;44.53;;;;;;;-6.78;80.11;98885.06;10364476;28;20067;-47
2024/01/10 20:41:23;;;;;;;77.15;44.25;;;;;;;-6.87;79.49;98875.06;10365040;28;20132;-49
2024/01/10 20:46:22;;;;;;;;;;;;;;;-6.62;79.83;98923.47;10364136;28;20489;-48
2024/01/10 20:51:20;;;;;;;77.77;42.90;;;;;;;-6.83;79.55;98892.25;10363239;28;20291;-48
2024/01/10 20:56:19;;;;;;;;;;;;;;;-6.71;79.81;98922.69;10366021;28;20021;-48
2024/01/10 21:01:19;;;;;;;120.97;62.47;;;;;;;-6.97;79.92;98882.63;10362141;28;19920;-47
2024/01/10 21:06:18;;;;;;;101.82;50.00;;;;;;;-7.12;80.13;98881.31;10364410;28;20825;-48
2024/01/10 21:11:17;;;;;;;99.53;54.88;;;;;;;-6.97;80.52;98922.97;10364099;28;20561;-48
2024/01/10 21:16:17;;;;;;;76.40;40.92;;;;;;;-7.09;80.34;98889.16;10363809;28;20131;-47
2024/01/10 21:21:16;;;;;;;70.43;38.60;;;;;;;-7.02;80.64;98925.13;10364109;28;20133;-47
2024/01/10 21:26:15;;;;;;;76.43;41.67;;;;;;;-7.43;80.32;98834.19;10363345;28;20048;-47
2024/01/10 21:31:14;;;;;;;76.65;41.13;;;;;;;-7.06;79.86;98914.66;10362235;28;20074;-47
2024/01/10 21:36:13;;;;;;;85.93;47.50;;;;;;;-7.04;80.40;98913.13;10363245;28;20048;-51
2024/01/10 21:41:12;;;;;;;209.75;97.57;;;;;;;-6.99;80.68;98927.03;10361435;28;20026;-48
2024/01/10 21:46:12;;;;;;;186.77;87.00;;;;;;;-7.04;80.52;98946.81;10363149;28;20505;-48
2024/01/10 21:51:11;;;;;;;152.80;74.40;;;;;;;-7.04;80.67;98920.69;10361078;28;20140;-48
2024/01/10 21:56:10;;;;;;;178.43;88.45;;;;;;;-7.24;80.35;98881.16;10363193;28;20029;-48
2024/01/10 22:01:09;;;;;;;201.40;95.03;;;;;;;-7.07;80.40;98920.44;10360754;28;20051;-48
2024/01/10 22:06:07;;;;;;;221.93;105.00;;;;;;;-7.16;80.06;98902.88;10361264;28;20047;-49
2024/01/10 22:11:06;;;;;;;88.70;41.03;;;;;;;-7.17;80.79;98888.50;10362783;28;20032;-49
2024/01/10 22:16:06;;;;;;;132.60;57.55;;;;;;;-7.14;80.48;98892.91;10358642;28;20044;-48
2024/01/10 22:21:06;;;;;;;83.55;40.05;;;;;;;-7.27;80.22;98876.75;10359919;28;20789;-48
2024/01/10 22:26:05;;;;;;;79.75;42.90;;;;;;;-7.39;80.38;98865.59;10360856;28;20880;-48
2024/01/10 22:31:05;;;;;;;82.50;42.92;;;;;;;-7.23;79.93;98888.88;10361288;28;20024;-49
2024/01/10 22:36:04;;;;;;;84.38;45.10;;;;;;;-7.25;80.88;98884.41;10361507;28;20116;-49
2024/01/10 22:41:03;;;;;;;122.68;63.35;;;;;;;-7.26;80.28;98883.53;10359684;28;20148;-47
2024/01/10 22:46:04;;;;;;;114.90;61.17;;;;;;;-7.25;80.58;98880.28;10358687;28;20059;-47
2024/01/10 22:51:03;;;;;;;109.18;57.85;;;;;;;-7.23;80.72;98876.25;10357707;28;20703;-48
2024/01/10 22:56:03;;;;;;;109.85;55.83;;;;;;;-7.47;79.71;98844.75;10360994;28;20128;-47
2024/01/10 23:01:03;;;;;;;86.95;43.58;;;;;;;-7.36;79.53;98860.81;10359695;28;20079;-47
2024/01/10 23:06:05;;;;;;;61.08;30.35;;;;;;;-7.48;79.48;98849.69;10357570;28;20136;-47